sensor_id;sensor_type;location;lat;lon;timestamp;pressure;altitude;pressure_sealevel;temperature;humidity
48053;BME280;33824;51.600;5.718;2023-06-10T00:01:54;101210.78;;;22.75;51.08
48053;BME280;33824;51.600;5.718;2023-06-10T00:04:23;101210.09;;;22.68;51.26
48053;BME280;33824;51.600;5.718;2023-06-10T00:06:49;101217.31;;;22.62;51.61
48053;BME280;33824;51.600;5.718;2023-06-10T00:09:15;101209.03;;;22.57;51.72
48053;BME280;33824;51.600;5.718;2023-06-10T00:11:41;101211.09;;;22.50;51.78
48053;BME280;33824;51.600;5.718;2023-06-10T00:14:07;101219.97;;;22.45;52.22
48053;BME280;33824;51.600;5.718;2023-06-10T00:16:33;101213.63;;;22.40;52.30
48053;BME280;33824;51.600;5.718;2023-06-10T00:19:03;101219.44;;;22.32;52.45
48053;BME280;33824;51.600;5.718;2023-06-10T00:21:32;101211.53;;;22.30;52.45
48053;BME280;33824;51.600;5.718;2023-06-10T00:24:08;101217.94;;;22.24;52.59
48053;BME280;33824;51.600;5.718;2023-06-10T00:26:41;101217.50;;;22.16;52.48
48053;BME280;33824;51.600;5.718;2023-06-10T00:29:07;101215.03;;;22.14;52.63
48053;BME280;33824;51.600;5.718;2023-06-10T00:31:37;101211.88;;;22.06;52.96
48053;BME280;33824;51.600;5.718;2023-06-10T00:34:04;101212.34;;;22.03;53.43
48053;BME280;33824;51.600;5.718;2023-06-10T00:36:29;101216.84;;;21.97;53.61
48053;BME280;33824;51.600;5.718;2023-06-10T00:38:56;101212.81;;;21.88;53.63
48053;BME280;33824;51.600;5.718;2023-06-10T00:41:25;101217.53;;;21.81;54.13
48053;BME280;33824;51.600;5.718;2023-06-10T00:43:52;101222.63;;;21.77;54.11
48053;BME280;33824;51.600;5.718;2023-06-10T00:46:17;101223.09;;;21.74;53.97
48053;BME280;33824;51.600;5.718;2023-06-10T00:48:44;101222.16;;;21.69;54.35
48053;BME280;33824;51.600;5.718;2023-06-10T00:51:10;101230.22;;;21.64;54.33
48053;BME280;33824;51.600;5.718;2023-06-10T00:53:40;101224.91;;;21.57;54.83
48053;BME280;33824;51.600;5.718;2023-06-10T00:56:07;101231.38;;;21.56;54.67
48053;BME280;33824;51.600;5.718;2023-06-10T00:58:33;101229.38;;;21.51;54.90
48053;BME280;33824;51.600;5.718;2023-06-10T01:00:58;101227.63;;;21.45;54.53
48053;BME280;33824;51.600;5.718;2023-06-10T01:03:24;101229.59;;;21.38;55.27
48053;BME280;33824;51.600;5.718;2023-06-10T01:05:53;101231.59;;;21.31;55.80
48053;BME280;33824;51.600;5.718;2023-06-10T01:09:12;101229.63;;;21.15;56.86
48053;BME280;33824;51.600;5.718;2023-06-10T01:11:47;101228.53;;;21.16;56.42
48053;BME280;33824;51.600;5.718;2023-06-10T01:14:13;101231.84;;;21.18;56.84
48053;BME280;33824;51.600;5.718;2023-06-10T01:16:41;101232.91;;;21.17;56.63
48053;BME280;33824;51.600;5.718;2023-06-10T01:19:08;101231.94;;;21.12;57.01
48053;BME280;33824;51.600;5.718;2023-06-10T01:21:33;101233.00;;;21.11;57.11
48053;BME280;33824;51.600;5.718;2023-06-10T01:23:59;101237.44;;;21.05;56.94
48053;BME280;33824;51.600;5.718;2023-06-10T01:26:28;101236.50;;;20.99;57.43
48053;BME280;33824;51.600;5.718;2023-06-10T01:29:14;101243.19;;;20.85;58.35
48053;BME280;33824;51.600;5.718;2023-06-10T01:31:56;101238.94;;;20.89;57.80
48053;BME280;33824;51.600;5.718;2023-06-10T01:34:26;101239.41;;;20.86;58.04
48053;BME280;33824;51.600;5.718;2023-06-10T01:36:53;101234.94;;;20.80;58.18
48053;BME280;33824;51.600;5.718;2023-06-10T01:39:23;101238.91;;;20.78;59.06
48053;BME280;33824;51.600;5.718;2023-06-10T01:41:51;101233.28;;;20.79;58.79
48053;BME280;33824;51.600;5.718;2023-06-10T01:44:22;101238.13;;;20.77;59.31
48053;BME280;33824;51.600;5.718;2023-06-10T01:46:48;101235.41;;;20.77;59.39
48053;BME280;33824;51.600;5.718;2023-06-10T01:49:14;101235.63;;;20.76;59.61
48053;BME280;33824;51.600;5.718;2023-06-10T01:51:39;101234.44;;;20.72;59.33
48053;BME280;33824;51.600;5.718;2023-06-10T01:54:05;101245.72;;;20.69;59.53
48053;BME280;33824;51.600;5.718;2023-06-10T01:56:32;101235.59;;;20.64;59.63
48053;BME280;33824;51.600;5.718;2023-06-10T01:58:58;101245.22;;;20.60;59.82
48053;BME280;33824;51.600;5.718;2023-06-10T02:01:28;101240.13;;;20.52;60.23
48053;BME280;33824;51.600;5.718;2023-06-10T02:03:54;101240.13;;;20.52;60.03
48053;BME280;33824;51.600;5.718;2023-06-10T02:06:19;101237.88;;;20.49;60.44
48053;BME280;33824;51.600;5.718;2023-06-10T02:08:45;101239.41;;;20.45;60.57
48053;BME280;33824;51.600;5.718;2023-06-10T02:11:11;101244.22;;;20.43;60.72
48053;BME280;33824;51.600;5.718;2023-06-10T02:13:38;101239.50;;;20.38;60.74
48053;BME280;33824;51.600;5.718;2023-06-10T02:16:03;101251.38;;;20.37;60.56
48053;BME280;33824;51.600;5.718;2023-06-10T02:18:31;101247.25;;;20.35;61.26
48053;BME280;33824;51.600;5.718;2023-06-10T02:20:56;101248.50;;;20.32;61.17
48053;BME280;33824;51.600;5.718;2023-06-10T02:23:22;101248.75;;;20.31;61.54
48053;BME280;33824;51.600;5.718;2023-06-10T02:25:47;101246.47;;;20.28;61.75
48053;BME280;33824;51.600;5.718;2023-06-10T02:28:14;101247.38;;;20.22;61.54
48053;BME280;33824;51.600;5.718;2023-06-10T02:30:40;101257.25;;;20.16;61.77
48053;BME280;33824;51.600;5.718;2023-06-10T02:33:07;101256.63;;;20.14;61.82
48053;BME280;33824;51.600;5.718;2023-06-10T02:35:38;101258.13;;;20.10;61.90
48053;BME280;33824;51.600;5.718;2023-06-10T02:38:04;101255.31;;;20.05;61.79
48053;BME280;33824;51.600;5.718;2023-06-10T02:40:30;101253.25;;;20.00;62.10
48053;BME280;33824;51.600;5.718;2023-06-10T02:42:57;101263.09;;;19.95;62.51
48053;BME280;33824;51.600;5.718;2023-06-10T02:45:23;101261.91;;;19.91;62.63
48053;BME280;33824;51.600;5.718;2023-06-10T02:47:49;101256.56;;;19.84;62.24
48053;BME280;33824;51.600;5.718;2023-06-10T02:50:14;101257.22;;;19.80;62.91
48053;BME280;33824;51.600;5.718;2023-06-10T02:52:41;101253.94;;;19.78;63.18
48053;BME280;33824;51.600;5.718;2023-06-10T02:55:06;101251.66;;;19.75;63.30
48053;BME280;33824;51.600;5.718;2023-06-10T02:57:32;101264.38;;;19.74;63.52
48053;BME280;33824;51.600;5.718;2023-06-10T02:59:58;101256.94;;;19.70;63.86
48053;BME280;33824;51.600;5.718;2023-06-10T03:02:24;101261.13;;;19.66;63.90
48053;BME280;33824;51.600;5.718;2023-06-10T03:04:56;101263.06;;;19.58;64.05
48053;BME280;33824;51.600;5.718;2023-06-10T03:07:23;101259.53;;;19.58;64.26
48053;BME280;33824;51.600;5.718;2023-06-10T03:09:48;101261.03;;;19.54;64.08
48053;BME280;33824;51.600;5.718;2023-06-10T03:12:14;101260.66;;;19.50;64.52
48053;BME280;33824;51.600;5.718;2023-06-10T03:14:41;101269.44;;;19.46;64.38
48053;BME280;33824;51.600;5.718;2023-06-10T03:17:07;101268.22;;;19.42;64.60
48053;BME280;33824;51.600;5.718;2023-06-10T03:19:34;101267.81;;;19.38;64.83
48053;BME280;33824;51.600;5.718;2023-06-10T03:22:11;101268.53;;;19.27;65.20
48053;BME280;33824;51.600;5.718;2023-06-10T03:24:36;101267.25;;;19.30;64.99
48053;BME280;33824;51.600;5.718;2023-06-10T03:27:11;101270.22;;;19.22;65.64
48053;BME280;33824;51.600;5.718;2023-06-10T03:29:37;101274.78;;;18.96;66.12
48053;BME280;33824;51.600;5.718;2023-06-10T03:32:03;101273.88;;;19.09;65.75
48053;BME280;33824;51.600;5.718;2023-06-10T03:34:29;101283.59;;;19.10;65.76
48053;BME280;33824;51.600;5.718;2023-06-10T03:36:56;101281.75;;;19.10;66.43
48053;BME280;33824;51.600;5.718;2023-06-10T03:39:22;101279.44;;;19.14;66.14
48053;BME280;33824;51.600;5.718;2023-06-10T03:41:49;101283.78;;;19.15;66.31
48053;BME280;33824;51.600;5.718;2023-06-10T03:44:15;101281.91;;;19.15;66.27
48053;BME280;33824;51.600;5.718;2023-06-10T03:46:41;101291.47;;;19.18;66.34
48053;BME280;33824;51.600;5.718;2023-06-10T03:49:06;101287.91;;;19.17;66.35
48053;BME280;33824;51.600;5.718;2023-06-10T03:51:32;101289.38;;;19.20;66.74
48053;BME280;33824;51.600;5.718;2023-06-10T03:53:58;101284.56;;;19.22;66.39
48053;BME280;33824;51.600;5.718;2023-06-10T03:56:23;101293.88;;;19.26;66.67
48053;BME280;33824;51.600;5.718;2023-06-10T03:58:49;101293.69;;;19.28;66.73
48053;BME280;33824;51.600;5.718;2023-06-10T04:01:15;101298.19;;;19.34;66.00
48053;BME280;33824;51.600;5.718;2023-06-10T04:03:43;101288.84;;;19.36;66.20
48053;BME280;33824;51.600;5.718;2023-06-10T04:06:09;101290.84;;;19.41;66.11
48053;BME280;33824;51.600;5.718;2023-06-10T04:08:34;101289.41;;;19.45;65.74
48053;BME280;33824;51.600;5.718;2023-06-10T04:11:01;101296.66;;;19.51;65.59
48053;BME280;33824;51.600;5.718;2023-06-10T04:13:27;101297.03;;;19.54;65.80
48053;BME280;33824;51.600;5.718;2023-06-10T04:15:56;101297.03;;;19.54;65.73
48053;BME280;33824;51.600;5.718;2023-06-10T04:18:21;101294.03;;;19.62;65.68
48053;BME280;33824;51.600;5.718;2023-06-10T04:20:47;101301.03;;;19.70;65.40
48053;BME280;33824;51.600;5.718;2023-06-10T04:23:13;101304.72;;;19.76;65.21
48053;BME280;33824;51.600;5.718;2023-06-10T04:25:38;101306.19;;;19.78;65.19
48053;BME280;33824;51.600;5.718;2023-06-10T04:28:04;101309.03;;;19.83;65.31
48053;BME280;33824;51.600;5.718;2023-06-10T04:30:30;101309.78;;;19.90;64.98
48053;BME280;33824;51.600;5.718;2023-06-10T04:32:57;101314.06;;;19.98;64.90
48053;BME280;33824;51.600;5.718;2023-06-10T04:35:22;101315.91;;;20.04;64.21
48053;BME280;33824;51.600;5.718;2023-06-10T04:37:48;101303.31;;;20.09;64.61
48053;BME280;33824;51.600;5.718;2023-06-10T04:40:14;101308.69;;;20.16;64.27
48053;BME280;33824;51.600;5.718;2023-06-10T04:42:41;101306.56;;;20.18;63.98
48053;BME280;33824;51.600;5.718;2023-06-10T04:45:07;101314.22;;;20.21;64.23
48053;BME280;33824;51.600;5.718;2023-06-10T04:47:33;101312.13;;;20.23;64.11
48053;BME280;33824;51.600;5.718;2023-06-10T04:50:00;101316.06;;;20.27;64.19
48053;BME280;33824;51.600;5.718;2023-06-10T04:52:26;101315.78;;;20.35;63.82
48053;BME280;33824;51.600;5.718;2023-06-10T04:54:53;101315.91;;;20.40;63.59
48053;BME280;33824;51.600;5.718;2023-06-10T04:57:19;101311.69;;;20.44;63.31
48053;BME280;33824;51.600;5.718;2023-06-10T04:59:46;101311.47;;;20.46;63.33
48053;BME280;33824;51.600;5.718;2023-06-10T05:02:11;101305.97;;;20.52;63.26
48053;BME280;33824;51.600;5.718;2023-06-10T05:04:37;101301.06;;;20.61;62.93
48053;BME280;33824;51.600;5.718;2023-06-10T05:07:03;101305.09;;;20.70;62.69
48053;BME280;33824;51.600;5.718;2023-06-10T05:09:30;101310.09;;;20.73;62.23
48053;BME280;33824;51.600;5.718;2023-06-10T05:11:55;101308.09;;;20.80;62.58
48053;BME280;33824;51.600;5.718;2023-06-10T05:14:21;101308.59;;;20.89;62.34
48053;BME280;33824;51.600;5.718;2023-06-10T05:16:47;101315.97;;;21.00;62.21
48053;BME280;33824;51.600;5.718;2023-06-10T05:19:13;101314.19;;;21.05;61.81
48053;BME280;33824;51.600;5.718;2023-06-10T05:21:39;101315.19;;;21.11;61.69
48053;BME280;33824;51.600;5.718;2023-06-10T05:24:05;101320.72;;;21.16;61.61
48053;BME280;33824;51.600;5.718;2023-06-10T05:26:31;101321.69;;;21.22;61.37
48053;BME280;33824;51.600;5.718;2023-06-10T05:28:58;101318.88;;;21.28;61.13
48053;BME280;33824;51.600;5.718;2023-06-10T05:31:24;101324.09;;;21.41;60.76
48053;BME280;33824;51.600;5.718;2023-06-10T05:33:49;101315.25;;;21.46;60.75
48053;BME280;33824;51.600;5.718;2023-06-10T05:36:15;101319.75;;;21.52;60.75
48053;BME280;33824;51.600;5.718;2023-06-10T05:38:41;101317.88;;;21.64;60.41
48053;BME280;33824;51.600;5.718;2023-06-10T05:41:06;101313.38;;;21.70;60.36
48053;BME280;33824;51.600;5.718;2023-06-10T05:43:32;101309.59;;;21.71;59.45
48053;BME280;33824;51.600;5.718;2023-06-10T05:45:57;101315.25;;;21.81;60.00
48053;BME280;33824;51.600;5.718;2023-06-10T05:48:23;101322.16;;;21.95;59.71
48053;BME280;33824;51.600;5.718;2023-06-10T05:50:49;101319.28;;;21.90;59.13
48053;BME280;33824;51.600;5.718;2023-06-10T05:53:15;101321.66;;;22.10;59.06
48053;BME280;33824;51.600;5.718;2023-06-10T05:55:44;101321.03;;;22.19;58.78
48053;BME280;33824;51.600;5.718;2023-06-10T05:58:11;101314.66;;;22.37;58.29
48053;BME280;33824;51.600;5.718;2023-06-10T06:00:38;101314.72;;;22.42;57.80
48053;BME280;33824;51.600;5.718;2023-06-10T06:03:06;101307.19;;;22.44;57.53
48053;BME280;33824;51.600;5.718;2023-06-10T06:05:33;101315.38;;;22.61;57.83
48053;BME280;33824;51.600;5.718;2023-06-10T06:08:04;101313.31;;;22.79;57.06
48053;BME280;33824;51.600;5.718;2023-06-10T06:10:30;101316.66;;;22.98;56.91
48053;BME280;33824;51.600;5.718;2023-06-10T06:12:56;101319.81;;;22.90;56.55
48053;BME280;33824;51.600;5.718;2023-06-10T06:15:21;101314.22;;;22.97;56.49
48053;BME280;33824;51.600;5.718;2023-06-10T06:17:47;101318.31;;;22.99;56.13
48053;BME280;33824;51.600;5.718;2023-06-10T06:20:12;101315.22;;;23.07;55.78
48053;BME280;33824;51.600;5.718;2023-06-10T06:22:38;101322.63;;;23.12;55.47
48053;BME280;33824;51.600;5.718;2023-06-10T06:25:04;101315.03;;;23.14;55.56
48053;BME280;33824;51.600;5.718;2023-06-10T06:27:30;101321.41;;;23.19;55.15
48053;BME280;33824;51.600;5.718;2023-06-10T06:29:56;101317.56;;;23.32;54.92
48053;BME280;33824;51.600;5.718;2023-06-10T06:32:22;101324.63;;;23.33;54.57
48053;BME280;33824;51.600;5.718;2023-06-10T06:34:48;101321.72;;;23.51;54.16
48053;BME280;33824;51.600;5.718;2023-06-10T06:37:25;101331.78;;;23.51;53.58
48053;BME280;33824;51.600;5.718;2023-06-10T06:39:51;101324.91;;;23.65;53.84
48053;BME280;33824;51.600;5.718;2023-06-10T06:42:17;101324.63;;;23.83;53.34
48053;BME280;33824;51.600;5.718;2023-06-10T06:44:43;101324.53;;;23.95;52.93
48053;BME280;33824;51.600;5.718;2023-06-10T06:47:09;101320.00;;;24.00;52.73
48053;BME280;33824;51.600;5.718;2023-06-10T06:49:34;101327.25;;;24.11;52.20
48053;BME280;33824;51.600;5.718;2023-06-10T06:52:00;101324.91;;;24.20;52.07
48053;BME280;33824;51.600;5.718;2023-06-10T06:54:25;101330.31;;;24.36;51.74
48053;BME280;33824;51.600;5.718;2023-06-10T06:56:51;101326.00;;;24.41;51.33
48053;BME280;33824;51.600;5.718;2023-06-10T06:59:16;101323.22;;;24.57;51.24
48053;BME280;33824;51.600;5.718;2023-06-10T07:01:45;101328.53;;;24.69;50.83
48053;BME280;33824;51.600;5.718;2023-06-10T07:04:11;101333.22;;;24.73;50.54
48053;BME280;33824;51.600;5.718;2023-06-10T07:06:36;101325.03;;;24.95;50.39
48053;BME280;33824;51.600;5.718;2023-06-10T07:09:04;101328.00;;;24.94;49.60
48053;BME280;33824;51.600;5.718;2023-06-10T07:11:30;101326.50;;;25.08;49.72
48053;BME280;33824;51.600;5.718;2023-06-10T07:13:56;101333.69;;;25.14;48.89
48053;BME280;33824;51.600;5.718;2023-06-10T07:16:22;101333.53;;;25.30;49.08
48053;BME280;33824;51.600;5.718;2023-06-10T07:18:47;101337.22;;;25.41;48.69
48053;BME280;33824;51.600;5.718;2023-06-10T07:21:13;101332.69;;;25.52;47.90
48053;BME280;33824;51.600;5.718;2023-06-10T07:23:42;101332.75;;;25.62;47.89
48053;BME280;33824;51.600;5.718;2023-06-10T07:26:08;101332.75;;;25.62;47.25
48053;BME280;33824;51.600;5.718;2023-06-10T07:28:42;101327.81;;;25.59;47.31
48053;BME280;33824;51.600;5.718;2023-06-10T07:31:08;101335.59;;;25.77;46.98
48053;BME280;33824;51.600;5.718;2023-06-10T07:33:33;101326.16;;;25.95;46.84
48053;BME280;33824;51.600;5.718;2023-06-10T07:36:00;101329.28;;;26.13;46.56
48053;BME280;33824;51.600;5.718;2023-06-10T07:38:26;101331.50;;;26.21;46.10
48053;BME280;33824;51.600;5.718;2023-06-10T07:40:52;101337.03;;;26.37;45.49
48053;BME280;33824;51.600;5.718;2023-06-10T07:43:17;101333.50;;;26.41;44.72
48053;BME280;33824;51.600;5.718;2023-06-10T07:45:44;101341.97;;;26.35;44.88
48053;BME280;33824;51.600;5.718;2023-06-10T07:48:09;101337.41;;;26.55;44.70
48053;BME280;33824;51.600;5.718;2023-06-10T07:50:35;101337.72;;;26.69;44.72
48053;BME280;33824;51.600;5.718;2023-06-10T07:53:01;101334.78;;;26.91;43.95
48053;BME280;33824;51.600;5.718;2023-06-10T07:55:27;101330.16;;;26.91;43.49
48053;BME280;33824;51.600;5.718;2023-06-10T07:57:53;101337.81;;;26.94;42.79
48053;BME280;33824;51.600;5.718;2023-06-10T08:00:19;101328.53;;;27.00;43.22
48053;BME280;33824;51.600;5.718;2023-06-10T08:02:46;101331.56;;;27.14;42.03
48053;BME280;33824;51.600;5.718;2023-06-10T08:05:11;101331.56;;;27.14;42.32
48053;BME280;33824;51.600;5.718;2023-06-10T08:07:37;101325.53;;;27.17;42.34
48053;BME280;33824;51.600;5.718;2023-06-10T08:10:03;101331.28;;;27.36;41.53
48053;BME280;33824;51.600;5.718;2023-06-10T08:12:32;101327.19;;;27.38;40.95
48053;BME280;33824;51.600;5.718;2023-06-10T08:14:59;101337.34;;;27.48;41.20
48053;BME280;33824;51.600;5.718;2023-06-10T08:17:24;101329.66;;;27.70;40.55
48053;BME280;33824;51.600;5.718;2023-06-10T08:19:50;101317.88;;;27.80;40.35
48053;BME280;33824;51.600;5.718;2023-06-10T08:22:15;101335.69;;;27.82;40.34
48053;BME280;33824;51.600;5.718;2023-06-10T08:24:41;101329.59;;;28.00;40.42
48053;BME280;33824;51.600;5.718;2023-06-10T08:27:06;101328.78;;;28.15;39.91
48053;BME280;33824;51.600;5.718;2023-06-10T08:29:32;101324.56;;;28.43;39.97
48053;BME280;33824;51.600;5.718;2023-06-10T08:31:58;101327.00;;;28.49;39.42
48053;BME280;33824;51.600;5.718;2023-06-10T08:34:24;101331.88;;;28.57;39.18
48053;BME280;33824;51.600;5.718;2023-06-10T08:36:49;101326.06;;;28.74;38.87
48053;BME280;33824;51.600;5.718;2023-06-10T08:39:23;101321.41;;;28.80;38.73
48053;BME280;33824;51.600;5.718;2023-06-10T08:42:04;101326.66;;;28.71;38.23
48053;BME280;33824;51.600;5.718;2023-06-10T08:44:31;101317.31;;;28.72;39.70
48053;BME280;33824;51.600;5.718;2023-06-10T08:47:06;101316.50;;;28.72;38.96
48053;BME280;33824;51.600;5.718;2023-06-10T08:49:38;101313.41;;;28.83;38.76
48053;BME280;33824;51.600;5.718;2023-06-10T08:52:05;101322.75;;;28.77;39.18
48053;BME280;33824;51.600;5.718;2023-06-10T08:54:33;101319.50;;;28.70;39.93
48053;BME280;33824;51.600;5.718;2023-06-10T08:57:05;101334.34;;;28.59;39.35
48053;BME280;33824;51.600;5.718;2023-06-10T08:59:31;101323.31;;;28.79;39.34
48053;BME280;33824;51.600;5.718;2023-06-10T09:01:58;101315.69;;;28.71;39.72
48053;BME280;33824;51.600;5.718;2023-06-10T09:04:24;101328.84;;;28.64;39.61
48053;BME280;33824;51.600;5.718;2023-06-10T09:06:50;101329.97;;;28.68;39.64
48053;BME280;33824;51.600;5.718;2023-06-10T09:09:17;101322.97;;;28.91;38.69
48053;BME280;33824;51.600;5.718;2023-06-10T09:11:44;101315.75;;;29.00;38.86
48053;BME280;33824;51.600;5.718;2023-06-10T09:14:09;101313.94;;;28.85;38.99
48053;BME280;33824;51.600;5.718;2023-06-10T09:16:37;101318.56;;;28.90;39.06
48053;BME280;33824;51.600;5.718;2023-06-10T09:19:03;101317.38;;;29.06;39.08
48053;BME280;33824;51.600;5.718;2023-06-10T09:21:34;101314.41;;;28.97;38.46
48053;BME280;33824;51.600;5.718;2023-06-10T09:24:01;101314.09;;;29.04;38.45
48053;BME280;33824;51.600;5.718;2023-06-10T09:26:28;101318.56;;;28.90;38.02
48053;BME280;33824;51.600;5.718;2023-06-10T09:29:06;101310.41;;;28.80;37.42
48053;BME280;33824;51.600;5.718;2023-06-10T09:31:36;101313.25;;;29.03;38.06
48053;BME280;33824;51.600;5.718;2023-06-10T09:34:11;101310.25;;;29.05;36.75
48053;BME280;33824;51.600;5.718;2023-06-10T09:36:37;101310.94;;;29.21;37.68
48053;BME280;33824;51.600;5.718;2023-06-10T09:39:03;101310.38;;;29.29;37.27
48053;BME280;33824;51.600;5.718;2023-06-10T09:41:34;101308.16;;;29.26;35.83
48053;BME280;33824;51.600;5.718;2023-06-10T09:44:01;101304.50;;;29.40;36.45
48053;BME280;33824;51.600;5.718;2023-06-10T09:46:31;101308.06;;;29.41;37.11
48053;BME280;33824;51.600;5.718;2023-06-10T09:49:00;101307.78;;;29.71;36.51
48053;BME280;33824;51.600;5.718;2023-06-10T09:51:26;101309.59;;;29.86;36.48
48053;BME280;33824;51.600;5.718;2023-06-10T09:53:52;101304.91;;;29.81;35.74
48053;BME280;33824;51.600;5.718;2023-06-10T09:56:18;101310.47;;;29.76;36.15
48053;BME280;33824;51.600;5.718;2023-06-10T09:58:45;101301.50;;;29.94;35.89
48053;BME280;33824;51.600;5.718;2023-06-10T10:01:14;101310.06;;;29.93;35.94
48053;BME280;33824;51.600;5.718;2023-06-10T10:03:47;101299.75;;;30.04;35.73
48053;BME280;33824;51.600;5.718;2023-06-10T10:06:14;101304.72;;;30.25;36.01
48053;BME280;33824;51.600;5.718;2023-06-10T10:08:40;101304.78;;;30.44;35.16
48053;BME280;33824;51.600;5.718;2023-06-10T10:11:06;101303.97;;;30.43;34.90
48053;BME280;33824;51.600;5.718;2023-06-10T10:13:35;101302.91;;;30.39;34.70
48053;BME280;33824;51.600;5.718;2023-06-10T10:16:14;101304.50;;;30.64;34.33
48053;BME280;33824;51.600;5.718;2023-06-10T10:18:46;101292.75;;;30.59;34.51
48053;BME280;33824;51.600;5.718;2023-06-10T10:21:15;101303.25;;;30.57;34.43
48053;BME280;33824;51.600;5.718;2023-06-10T10:26:25;101284.78;;;30.76;34.48
48053;BME280;33824;51.600;5.718;2023-06-10T10:28:58;101290.34;;;30.89;33.63
48053;BME280;33824;51.600;5.718;2023-06-10T10:31:27;101285.22;;;30.83;33.22
48053;BME280;33824;51.600;5.718;2023-06-10T10:33:58;101290.59;;;30.93;33.22
48053;BME280;33824;51.600;5.718;2023-06-10T10:36:25;101282.34;;;31.12;32.51
48053;BME280;33824;51.600;5.718;2023-06-10T10:38:51;101287.94;;;31.07;33.08
48053;BME280;33824;51.600;5.718;2023-06-10T10:41:18;101275.91;;;30.98;32.98
48053;BME280;33824;51.600;5.718;2023-06-10T10:43:44;101280.88;;;31.01;33.23
48053;BME280;33824;51.600;5.718;2023-06-10T10:46:13;101279.91;;;31.24;32.78
48053;BME280;33824;51.600;5.718;2023-06-10T10:48:40;101269.84;;;31.33;33.19
48053;BME280;33824;51.600;5.718;2023-06-10T10:51:09;101279.16;;;31.51;33.52
48053;BME280;33824;51.600;5.718;2023-06-10T10:53:38;101274.59;;;31.46;31.28
48053;BME280;33824;51.600;5.718;2023-06-10T10:56:13;101272.13;;;31.45;32.59
48053;BME280;33824;51.600;5.718;2023-06-10T10:58:39;101270.75;;;31.28;33.63
48053;BME280;33824;51.600;5.718;2023-06-10T11:01:14;101273.50;;;31.28;32.21
48053;BME280;33824;51.600;5.718;2023-06-10T11:03:44;101266.28;;;31.32;32.73
48053;BME280;33824;51.600;5.718;2023-06-10T11:06:15;101261.88;;;31.31;33.40
48053;BME280;33824;51.600;5.718;2023-06-10T11:11:21;101263.03;;;31.30;33.15
48053;BME280;33824;51.600;5.718;2023-06-10T11:16:29;101264.03;;;31.53;32.55
48053;BME280;33824;51.600;5.718;2023-06-10T11:18:56;101245.44;;;31.59;32.53
48053;BME280;33824;51.600;5.718;2023-06-10T11:21:24;101259.72;;;31.28;32.23
48053;BME280;33824;51.600;5.718;2023-06-10T11:23:51;101259.63;;;31.66;31.91
48053;BME280;33824;51.600;5.718;2023-06-10T11:31:20;101249.03;;;31.27;31.41
48053;BME280;33824;51.600;5.718;2023-06-10T11:33:59;101238.94;;;31.36;32.01
48053;BME280;33824;51.600;5.718;2023-06-10T11:36:26;101244.94;;;31.70;32.00
48053;BME280;33824;51.600;5.718;2023-06-10T11:39:02;101249.94;;;31.68;31.31
48053;BME280;33824;51.600;5.718;2023-06-10T11:41:29;101234.72;;;31.98;30.96
48053;BME280;33824;51.600;5.718;2023-06-10T11:43:58;101237.97;;;32.00;30.43
48053;BME280;33824;51.600;5.718;2023-06-10T11:46:26;101248.53;;;32.12;29.99
48053;BME280;33824;51.600;5.718;2023-06-10T11:48:56;101239.66;;;32.15;30.36
48053;BME280;33824;51.600;5.718;2023-06-10T11:51:27;101237.69;;;32.15;29.94
48053;BME280;33824;51.600;5.718;2023-06-10T11:53:53;101241.56;;;31.87;29.08
48053;BME280;33824;51.600;5.718;2023-06-10T11:56:23;101232.91;;;32.21;29.85
48053;BME280;33824;51.600;5.718;2023-06-10T11:58:59;101239.91;;;32.41;27.96
48053;BME280;33824;51.600;5.718;2023-06-10T12:01:31;101234.53;;;32.58;28.46
48053;BME280;33824;51.600;5.718;2023-06-10T12:04:05;101227.56;;;32.74;28.26
48053;BME280;33824;51.600;5.718;2023-06-10T12:06:48;101225.53;;;32.66;26.88
48053;BME280;33824;51.600;5.718;2023-06-10T12:09:28;101226.53;;;32.34;27.12
48053;BME280;33824;51.600;5.718;2023-06-10T12:11:57;101227.69;;;32.55;27.71
48053;BME280;33824;51.600;5.718;2023-06-10T12:14:59;101206.16;;;32.44;27.65
48053;BME280;33824;51.600;5.718;2023-06-10T12:19:58;101219.72;;;32.67;27.27
48053;BME280;33824;51.600;5.718;2023-06-10T12:22:23;101209.84;;;32.53;27.78
48053;BME280;33824;51.600;5.718;2023-06-10T12:25:01;101207.03;;;32.66;27.16
48053;BME280;33824;51.600;5.718;2023-06-10T12:27:28;101202.81;;;32.91;27.34
48053;BME280;33824;51.600;5.718;2023-06-10T12:30:01;101203.63;;;32.92;26.71
48053;BME280;33824;51.600;5.718;2023-06-10T12:32:42;101211.25;;;32.86;26.08
48053;BME280;33824;51.600;5.718;2023-06-10T12:35:10;101196.69;;;33.16;26.63
48053;BME280;33824;51.600;5.718;2023-06-10T12:37:37;101199.69;;;33.28;26.08
48053;BME280;33824;51.600;5.718;2023-06-10T12:40:04;101194.19;;;33.37;26.01
48053;BME280;33824;51.600;5.718;2023-06-10T12:42:35;101199.66;;;33.59;26.16
48053;BME280;33824;51.600;5.718;2023-06-10T12:45:03;101188.09;;;33.57;26.91
48053;BME280;33824;51.600;5.718;2023-06-10T12:47:37;101193.38;;;33.37;25.17
48053;BME280;33824;51.600;5.718;2023-06-10T12:50:06;101196.56;;;33.61;25.94
48053;BME280;33824;51.600;5.718;2023-06-10T12:52:32;101198.50;;;33.60;25.16
48053;BME280;33824;51.600;5.718;2023-06-10T12:55:01;101199.88;;;33.41;24.90
48053;BME280;33824;51.600;5.718;2023-06-10T12:57:27;101195.94;;;33.64;25.27
48053;BME280;33824;51.600;5.718;2023-06-10T12:59:52;101189.88;;;33.53;25.75
48053;BME280;33824;51.600;5.718;2023-06-10T13:02:21;101200.25;;;33.79;25.16
48053;BME280;33824;51.600;5.718;2023-06-10T13:04:49;101200.69;;;33.72;25.04
48053;BME280;33824;51.600;5.718;2023-06-10T13:07:16;101199.47;;;33.56;24.89
48053;BME280;33824;51.600;5.718;2023-06-10T13:09:42;101193.56;;;33.80;25.56